Time;durP1;ratioP1;P1;durP2;ratioP2;P2;SDS_P1;SDS_P2;PMS_P1;PMS_P2;Temp;Humidity;BMP_temperature;BMP_pressure;BME280_temperature;BME280_humidity;BME280_pressure;Samples;Min_cycle;Max_cycle;Signal;HPM_P1;HPM_P2
2022/01/09 00:01:41;;;;;;;9.20;5.77;;;1.90;67.10;;;;;;5063709;28;20063;-84
2022/01/09 00:04:07;;;;;;;17.23;9.20;;;2.00;67.10;;;;;;5048954;28;20064;-84
2022/01/09 00:06:32;;;;;;;18.50;11.07;;;2.00;67.00;;;;;;5048941;28;20030;-84
2022/01/09 00:08:58;;;;;;;17.93;11.50;;;1.90;66.90;;;;;;5032379;28;20325;-84
2022/01/09 00:11:27;;;;;;;18.50;11.00;;;1.90;67.00;;;;;;5032806;28;20406;-83
2022/01/09 00:13:54;;;;;;;21.50;11.47;;;1.80;67.10;;;;;;5032623;28;20026;-84
2022/01/09 00:16:23;;;;;;;15.30;11.00;;;1.80;67.20;;;;;;5032189;28;20051;-84
2022/01/09 00:18:49;;;;;;;19.20;10.73;;;1.80;67.30;;;;;;5032209;28;20477;-84
2022/01/09 00:21:15;;;;;;;15.37;10.87;;;1.90;67.40;;;;;;5032340;28;20033;-84
2022/01/09 00:23:42;;;;;;;18.93;10.30;;;1.90;67.90;;;;;;5033301;28;20032;-84
2022/01/09 00:26:08;;;;;;;18.17;11.17;;;1.90;67.30;;;;;;5032021;28;20029;-84
2022/01/09 00:28:35;;;;;;;18.17;11.50;;;1.90;67.20;;;;;;5048312;28;20029;-83
2022/01/09 00:31:01;;;;;;;22.80;12.87;;;1.80;67.20;;;;;;5033881;28;20064;-84
2022/01/09 00:33:27;;;;;;;16.67;10.83;;;1.80;67.20;;;;;;5033467;28;20026;-84
2022/01/09 00:35:53;;;;;;;16.03;10.20;;;1.80;67.60;;;;;;5033092;28;20072;-84
2022/01/09 00:38:20;;;;;;;16.90;10.50;;;1.80;67.60;;;;;;5031850;28;20030;-83
2022/01/09 00:40:46;;;;;;;15.67;9.60;;;1.80;67.70;;;;;;5032435;28;20025;-83
2022/01/09 00:43:12;;;;;;;19.93;10.40;;;1.90;67.80;;;;;;5048758;28;20098;-84
2022/01/09 00:45:40;;;;;;;13.30;8.90;;;1.90;67.70;;;;;;5033200;28;20032;-84
2022/01/09 00:48:07;;;;;;;17.00;9.83;;;2.00;67.60;;;;;;5015522;28;20258;-84
2022/01/09 00:50:36;;;;;;;16.10;9.03;;;2.00;67.50;;;;;;5031917;28;20021;-84
2022/01/09 00:53:06;;;;;;;18.17;10.30;;;2.00;67.50;;;;;;5032046;28;20037;-84
2022/01/09 00:55:32;;;;;;;17.97;9.70;;;2.00;67.50;;;;;;5031855;28;20044;-84
2022/01/09 00:57:58;;;;;;;14.23;9.37;;;2.00;67.70;;;;;;5031657;28;20053;-84
2022/01/09 01:00:24;;;;;;;15.07;9.20;;;2.00;67.50;;;;;;5031615;28;20026;-84
2022/01/09 01:02:50;;;;;;;15.17;11.10;;;2.00;67.60;;;;;;5001478;28;20037;-83
2022/01/09 01:05:16;;;;;;;15.03;10.43;;;2.10;67.50;;;;;;5029923;28;20040;-84
2022/01/09 01:07:42;;;;;;;15.83;9.53;;;2.00;67.50;;;;;;5031741;28;20057;-84
2022/01/09 01:10:08;;;;;;;18.53;10.37;;;2.00;67.60;;;;;;5032874;28;20056;-84
2022/01/09 01:12:37;;;;;;;13.60;9.20;;;2.00;67.50;;;;;;5031217;28;20036;-84
2022/01/09 01:15:03;;;;;;;14.97;8.83;;;2.00;67.60;;;;;;5031317;28;20067;-84
2022/01/09 01:17:30;;;;;;;13.87;8.47;;;2.00;67.70;;;;;;5047647;28;20048;-84
2022/01/09 01:19:55;;;;;;;11.67;7.33;;;2.10;67.90;;;;;;5045901;28;20535;-84
2022/01/09 01:22:22;;;;;;;14.33;8.47;;;2.10;67.80;;;;;;5032530;28;20053;-84
2022/01/09 01:24:48;;;;;;;18.80;10.67;;;2.10;67.60;;;;;;5033508;28;20489;-84
2022/01/09 01:27:14;;;;;;;23.50;12.60;;;2.20;67.70;;;;;;5034093;28;20048;-81
2022/01/09 01:29:40;;;;;;;20.33;12.17;;;2.20;67.60;;;;;;5039209;28;20151;-84
2022/01/09 01:32:06;;;;;;;17.13;10.33;;;2.20;67.60;;;;;;5053133;28;20041;-83
2022/01/09 01:34:35;;;;;;;17.00;9.67;;;2.10;67.70;;;;;;5047783;28;20017;-83
2022/01/09 01:37:00;;;;;;;16.47;9.73;;;2.20;67.70;;;;;;5032287;28;20076;-84
2022/01/09 01:39:26;;;;;;;16.53;10.03;;;2.10;67.60;;;;;;5026826;28;20033;-84
2022/01/09 01:41:52;;;;;;;13.83;9.33;;;2.10;67.80;;;;;;5032104;28;20033;-84
2022/01/09 01:44:18;;;;;;;15.03;9.50;;;2.10;67.70;;;;;;5014333;28;20101;-85
2022/01/09 01:46:44;;;;;;;15.03;9.47;;;2.10;67.80;;;;;;5030890;28;20108;-84
2022/01/09 01:49:11;;;;;;;13.43;9.00;;;2.10;67.90;;;;;;5030768;28;20022;-83
2022/01/09 01:51:39;;;;;;;14.40;8.77;;;2.10;67.80;;;;;;5030887;28;20212;-84
2022/01/09 01:54:06;;;;;;;13.27;8.20;;;2.10;68.00;;;;;;5038761;28;20088;-84
2022/01/09 01:56:32;;;;;;;16.90;9.57;;;2.00;67.90;;;;;;5047326;28;20455;-84
2022/01/09 01:58:58;;;;;;;15.60;9.47;;;2.00;68.00;;;;;;5031962;28;20029;-84
2022/01/09 02:01:24;;;;;;;17.50;10.20;;;2.10;68.10;;;;;;5047309;28;20446;-83
2022/01/09 02:03:49;;;;;;;14.13;7.90;;;2.10;68.00;;;;;;5032089;28;20052;-84
2022/01/09 02:06:17;;;;;;;11.20;6.67;;;2.10;68.10;;;;;;5047386;28;20059;-84
2022/01/09 02:08:44;;;;;;;13.43;6.87;;;2.20;68.30;;;;;;5029881;28;20160;-84
2022/01/09 02:11:11;;;;;;;11.53;6.03;;;2.20;68.10;;;;;;5013296;28;20058;-84
2022/01/09 02:13:40;;;;;;;10.93;6.80;;;2.30;68.10;;;;;;5027417;28;20340;-84
2022/01/09 02:16:16;;;;;;;16.70;8.40;;;2.30;67.90;;;;;;5030139;28;20057;-84
2022/01/09 02:18:43;;;;;;;14.77;8.83;;;2.30;67.80;;;;;;5030671;28;20183;-84
2022/01/09 02:21:10;;;;;;;15.20;8.90;;;2.30;67.70;;;;;;5031742;28;20071;-84
2022/01/09 02:23:38;;;;;;;14.53;9.03;;;2.30;67.70;;;;;;5030776;28;20133;-84
2022/01/09 02:26:04;;;;;;;12.93;8.53;;;2.30;67.80;;;;;;5030488;28;20025;-84
2022/01/09 02:28:29;;;;;;;12.47;8.00;;;2.30;68.00;;;;;;5030913;28;20036;-83
2022/01/09 02:30:55;;;;;;;11.97;8.00;;;2.30;68.10;;;;;;5029913;28;20021;-84
2022/01/09 02:33:21;;;;;;;14.83;8.60;;;2.30;68.00;;;;;;5030334;28;20392;-84
2022/01/09 02:35:52;;;;;;;17.20;9.10;;;2.30;68.50;;;;;;5044158;28;20096;-84
2022/01/09 02:38:19;;;;;;;13.37;8.67;;;2.30;67.80;;;;;;5066708;28;20027;-85
2022/01/09 02:40:53;;;;;;;12.77;7.17;;;2.30;68.00;;;;;;5067277;28;20031;-84
2022/01/09 02:43:20;;;;;;;13.00;8.00;;;2.30;68.00;;;;;;5048644;28;20035;-84
2022/01/09 02:45:50;;;;;;;17.20;8.93;;;2.40;68.00;;;;;;5011632;28;20084;-84
2022/01/09 02:48:16;;;;;;;10.53;7.57;;;2.40;68.00;;;;;;5027375;28;20110;-84
2022/01/09 02:50:54;;;;;;;10.43;7.63;;;2.30;68.00;;;;;;5027207;28;20038;-84
2022/01/09 02:53:21;;;;;;;11.30;7.83;;;2.40;68.00;;;;;;5027217;28;20026;-84
2022/01/09 02:55:48;;;;;;;10.30;7.03;;;2.40;68.00;;;;;;5027034;28;20026;-84
2022/01/09 02:58:14;;;;;;;10.77;7.33;;;2.40;67.90;;;;;;5027134;28;20057;-84
2022/01/09 03:00:43;;;;;;;12.33;7.70;;;2.40;67.90;;;;;;5032514;28;20025;-84
2022/01/09 03:03:10;;;;;;;11.77;8.03;;;2.30;67.80;;;;;;5028248;28;20025;-84
2022/01/09 03:05:36;;;;;;;13.43;8.43;;;2.30;67.90;;;;;;5027001;28;20053;-84
2022/01/09 03:08:04;;;;;;;14.43;7.70;;;2.30;67.80;;;;;;5027028;28;20037;-84
2022/01/09 03:10:29;;;;;;;12.57;7.93;;;2.40;67.90;;;;;;5026986;28;20025;-84
2022/01/09 03:12:57;;;;;;;11.33;7.70;;;2.30;67.70;;;;;;5026837;28;20050;-84
2022/01/09 03:15:24;;;;;;;11.73;7.70;;;2.30;67.80;;;;;;5029992;28;20037;-84
2022/01/09 03:17:50;;;;;;;12.57;7.33;;;2.20;67.70;;;;;;5035694;28;20047;-84
2022/01/09 03:20:22;;;;;;;12.40;7.60;;;2.20;67.80;;;;;;5067364;28;20507;-84
2022/01/09 03:22:48;;;;;;;10.55;6.70;;;2.20;67.90;;;;;;5070165;28;20029;-84
2022/01/09 03:25:15;;;;;;;11.37;7.30;;;2.20;67.80;;;;;;5070198;28;20096;-84
2022/01/09 03:27:45;;;;;;;10.17;6.90;;;2.20;67.90;;;;;;5069954;28;20021;-84
2022/01/09 03:30:12;;;;;;;10.07;6.70;;;2.20;67.90;;;;;;5070072;28;20032;-84
2022/01/09 03:32:39;;;;;;;16.40;7.53;;;2.20;67.80;;;;;;5070087;28;20021;-84
2022/01/09 03:35:07;;;;;;;11.17;7.40;;;2.10;67.70;;;;;;5069351;28;20070;-84
2022/01/09 03:37:33;;;;;;;11.57;6.90;;;2.10;67.90;;;;;;5070010;28;20028;-84
2022/01/09 03:39:58;;;;;;;12.33;6.30;;;2.10;67.90;;;;;;5069953;28;20025;-84
2022/01/09 03:42:24;;;;;;;12.37;7.33;;;2.10;68.00;;;;;;5052358;28;20029;-84
2022/01/09 03:44:50;;;;;;;12.53;8.83;;;2.10;68.00;;;;;;5032993;28;20026;-84
2022/01/09 03:47:15;;;;;;;10.03;7.53;;;2.10;67.90;;;;;;5032964;28;20029;-84
2022/01/09 03:49:41;;;;;;;10.07;6.77;;;2.10;67.80;;;;;;5033190;28;20036;-84
2022/01/09 03:52:07;;;;;;;12.33;8.37;;;2.10;68.00;;;;;;5039653;28;20025;-84
2022/01/09 03:54:36;;;;;;;13.97;6.97;;;2.00;68.00;;;;;;5032931;28;20032;-84
2022/01/09 03:57:02;;;;;;;11.93;7.27;;;2.10;68.00;;;;;;5034782;28;20013;-84
2022/01/09 03:59:28;;;;;;;13.37;6.97;;;2.00;68.00;;;;;;5033275;28;20025;-84
2022/01/09 04:01:54;;;;;;;15.17;7.47;;;2.10;68.60;;;;;;5032705;28;20025;-84
2022/01/09 04:04:20;;;;;;;10.53;6.27;;;2.20;68.10;;;;;;5034089;28;20017;-84
2022/01/09 04:06:49;;;;;;;10.10;6.27;;;2.20;68.10;;;;;;5034442;28;20037;-85
2022/01/09 04:09:21;;;;;;;11.03;6.80;;;2.20;68.10;;;;;;5033040;28;20025;-84
2022/01/09 04:11:50;;;;;;;9.70;7.10;;;2.30;68.10;;;;;;5032542;28;20084;-85
2022/01/09 04:14:16;;;;;;;11.43;7.23;;;2.30;68.00;;;;;;5033798;28;20025;-85
2022/01/09 04:16:42;;;;;;;9.77;6.73;;;2.20;67.90;;;;;;5032610;28;20514;-85
2022/01/09 04:19:12;;;;;;;9.73;6.37;;;2.20;68.00;;;;;;5032468;28;20485;-84
2022/01/09 04:21:41;;;;;;;12.57;7.30;;;2.20;68.00;;;;;;5031628;28;20121;-85
2022/01/09 04:24:06;;;;;;;13.97;6.73;;;2.20;68.00;;;;;;5033788;28;20022;-85
2022/01/09 04:26:32;;;;;;;15.97;6.70;;;2.20;68.30;;;;;;5043616;28;20506;-84
2022/01/09 04:28:58;;;;;;;10.40;5.77;;;2.30;68.30;;;;;;5069036;28;20044;-84
2022/01/09 04:31:24;;;;;;;11.60;6.03;;;2.20;68.40;;;;;;5068810;28;20096;-85
2022/01/09 04:33:49;;;;;;;13.80;6.70;;;2.30;68.40;;;;;;5068405;28;20383;-85
2022/01/09 04:36:15;;;;;;;9.53;6.07;;;2.40;68.30;;;;;;5016679;28;20018;-85
2022/01/09 04:38:42;;;;;;;10.53;7.07;;;2.30;68.00;;;;;;5029315;28;20080;-85
2022/01/09 04:41:08;;;;;;;11.47;6.60;;;2.40;68.00;;;;;;5028766;28;20030;-85
2022/01/09 04:43:34;;;;;;;10.43;7.47;;;2.40;67.90;;;;;;5017124;28;20040;-85
2022/01/09 04:45:59;;;;;;;9.90;6.70;;;2.40;67.80;;;;;;5028660;28;20508;-84
2022/01/09 04:48:25;;;;;;;13.30;7.80;;;2.30;67.70;;;;;;5036018;28;20079;-85
2022/01/09 04:50:53;;;;;;;12.27;7.57;;;2.30;67.70;;;;;;5034531;28;20400;-84
2022/01/09 04:53:19;;;;;;;12.70;7.17;;;2.30;67.80;;;;;;5033366;28;20026;-85
2022/01/09 04:55:47;;;;;;;12.33;7.37;;;2.20;67.80;;;;;;5032122;28;20108;-84
2022/01/09 04:58:13;;;;;;;11.47;7.60;;;2.20;67.70;;;;;;5031877;28;20396;-85
2022/01/09 05:00:42;;;;;;;9.60;7.60;;;2.10;67.90;;;;;;5004141;28;20459;-84
2022/01/09 05:03:10;;;;;;;15.03;7.27;;;2.10;67.90;;;;;;5028332;28;20113;-85
2022/01/09 05:05:36;;;;;;;11.80;8.10;;;2.10;67.90;;;;;;5028597;28;20045;-84
2022/01/09 05:08:02;;;;;;;13.10;7.87;;;2.10;68.00;;;;;;4995411;28;20026;-85
2022/01/09 05:10:28;;;;;;;15.20;7.63;;;2.10;67.90;;;;;;5013059;28;20018;-85
2022/01/09 05:12:53;;;;;;;10.70;7.10;;;2.10;67.90;;;;;;5013040;28;20022;-85
2022/01/09 05:15:20;;;;;;;11.70;8.17;;;2.10;67.90;;;;;;5019765;28;20033;-85
2022/01/09 05:17:46;;;;;;;14.50;8.20;;;2.10;67.90;;;;;;5028097;28;20024;-85
2022/01/09 05:20:12;;;;;;;14.93;8.50;;;2.10;67.90;;;;;;5032414;28;20365;-85
2022/01/09 05:22:38;;;;;;;11.57;7.00;;;2.10;67.90;;;;;;5031053;28;20436;-85
2022/01/09 05:25:08;;;;;;;13.10;7.50;;;2.10;67.90;;;;;;5031252;28;20025;-85
2022/01/09 05:27:35;;;;;;;13.23;8.33;;;2.10;67.80;;;;;;5031257;28;20091;-85
2022/01/09 05:30:03;;;;;;;9.93;6.37;;;2.20;67.90;;;;;;5030995;28;20428;-84
2022/01/09 05:32:30;;;;;;;12.00;6.33;;;2.20;68.00;;;;;;5030887;28;20037;-83
2022/01/09 05:34:55;;;;;;;11.67;7.13;;;2.20;68.10;;;;;;5045716;28;20384;-83
2022/01/09 05:37:21;;;;;;;11.57;7.33;;;2.20;68.00;;;;;;5051162;28;20037;-84
2022/01/09 05:39:47;;;;;;;15.37;7.13;;;2.20;68.10;;;;;;5052287;28;20035;-84
2022/01/09 05:42:15;;;;;;;12.60;7.23;;;2.20;68.00;;;;;;5067977;28;20419;-84
2022/01/09 05:44:42;;;;;;;10.80;6.80;;;2.20;67.90;;;;;;5066646;28;20024;-84
2022/01/09 05:47:08;;;;;;;11.67;6.40;;;2.20;68.90;;;;;;5051527;28;20057;-84
2022/01/09 05:49:34;;;;;;;9.93;5.67;;;2.30;68.30;;;;;;5014307;28;20064;-84
2022/01/09 05:52:00;;;;;;;6.63;3.93;;;2.40;68.20;;;;;;5031274;28;20028;-83
2022/01/09 05:54:25;;;;;;;7.00;4.50;;;2.40;67.80;;;;;;5036895;28;20489;-85
2022/01/09 05:56:54;;;;;;;5.73;4.17;;;2.50;67.80;;;;;;5067533;28;20158;-83
2022/01/09 05:59:20;;;;;;;5.60;4.40;;;2.40;67.30;;;;;;5067126;28;20025;-85
2022/01/09 06:01:46;;;;;;;7.57;4.60;;;2.40;67.40;;;;;;5035724;28;20068;-83
2022/01/09 06:04:12;;;;;;;6.07;3.00;;;2.40;67.10;;;;;;5047150;28;20134;-83
2022/01/09 06:06:39;;;;;;;4.07;2.87;;;2.30;67.10;;;;;;5047200;28;20053;-83
2022/01/09 06:09:05;;;;;;;4.57;2.53;;;2.40;67.70;;;;;;5032506;28;20037;-83
2022/01/09 06:11:31;;;;;;;5.63;2.83;;;2.50;67.20;;;;;;5030153;28;20025;-83
2022/01/09 06:13:56;;;;;;;3.73;2.83;;;2.60;67.10;;;;;;5030557;28;20491;-83
2022/01/09 06:16:24;;;;;;;6.23;3.43;;;2.50;66.90;;;;;;5030145;28;20092;-83
2022/01/09 06:18:49;;;;;;;5.73;3.77;;;2.50;66.70;;;;;;5031701;28;20396;-83
2022/01/09 06:21:17;;;;;;;9.97;5.40;;;2.40;66.60;;;;;;5027281;28;20030;-83
2022/01/09 06:23:42;;;;;;;9.53;6.03;;;2.40;66.50;;;;;;5027283;28;20030;-83
2022/01/09 06:26:08;;;;;;;10.33;6.87;;;2.40;66.50;;;;;;5032798;28;20029;-83
2022/01/09 06:28:34;;;;;;;9.07;5.40;;;2.40;66.70;;;;;;5031431;28;20067;-83
2022/01/09 06:30:59;;;;;;;8.53;3.70;;;2.40;66.60;;;;;;5048562;28;20022;-83
2022/01/09 06:33:25;;;;;;;7.57;3.90;;;2.40;66.50;;;;;;5032686;28;20029;-82
2022/01/09 06:35:51;;;;;;;11.10;5.70;;;2.40;66.60;;;;;;5048631;28;20045;-85
2022/01/09 06:38:17;;;;;;;9.40;5.53;;;2.60;66.70;;;;;;5047241;28;20624;-85
2022/01/09 06:40:43;;;;;;;8.93;4.50;;;2.80;66.70;;;;;;5031741;28;20026;-85
2022/01/09 06:43:08;;;;;;;7.90;4.80;;;2.80;65.80;;;;;;5046922;28;20070;-85
2022/01/09 06:45:34;;;;;;;11.53;6.07;;;2.80;65.90;;;;;;5030630;28;20052;-85
2022/01/09 06:48:02;;;;;;;21.20;12.13;;;3.00;66.00;;;;;;5030234;28;20052;-85
2022/01/09 06:50:28;;;;;;;16.20;10.50;;;3.00;66.00;;;;;;5031710;28;20022;-85
2022/01/09 06:52:54;;;;;;;27.27;13.83;;;3.00;65.70;;;;;;5030651;28;20108;-85
2022/01/09 06:55:20;;;;;;;25.27;16.73;;;3.10;65.80;;;;;;5032152;28;20024;-85
2022/01/09 06:57:46;;;;;;;16.53;10.83;;;3.00;65.70;;;;;;5033991;28;20026;-85
2022/01/09 07:00:14;;;;;;;22.10;12.97;;;3.00;65.60;;;;;;5038973;28;20383;-85
2022/01/09 07:02:40;;;;;;;15.20;9.87;;;3.10;65.80;;;;;;5034289;28;20025;-86
2022/01/09 07:05:06;;;;;;;9.10;5.40;;;3.20;65.70;;;;;;5050826;28;20021;-84
2022/01/09 07:07:33;;;;;;;8.50;5.23;;;3.20;65.70;;;;;;5050356;28;20021;-84
2022/01/09 07:09:59;;;;;;;10.80;6.03;;;3.20;65.70;;;;;;5050413;28;20060;-84
2022/01/09 07:12:24;;;;;;;7.57;4.53;;;3.20;65.40;;;;;;5034615;28;20485;-83
2022/01/09 07:14:50;;;;;;;7.63;4.37;;;3.20;65.40;;;;;;5033786;28;20021;-83
2022/01/09 07:17:16;;;;;;;6.93;3.40;;;3.20;65.20;;;;;;5051700;28;20044;-83
2022/01/09 07:19:42;;;;;;;11.80;4.43;;;3.20;65.00;;;;;;5070103;28;20056;-83
2022/01/09 07:22:07;;;;;;;8.63;4.23;;;3.10;64.60;;;;;;5055018;28;20104;-84
2022/01/09 07:24:34;;;;;;;7.33;3.83;;;3.20;64.60;;;;;;5069863;28;20434;-84
2022/01/09 07:27:01;;;;;;;7.57;4.67;;;3.20;64.30;;;;;;5057643;28;20071;-84
2022/01/09 07:29:27;;;;;;;8.13;4.20;;;3.20;64.10;;;;;;5033160;28;20371;-84
2022/01/09 07:31:53;;;;;;;10.27;3.47;;;3.20;64.10;;;;;;5049849;28;20108;-83
2022/01/09 07:34:20;;;;;;;11.17;5.43;;;3.30;63.90;;;;;;5049840;28;20019;-84
2022/01/09 07:36:46;;;;;;;9.40;5.57;;;3.40;63.80;;;;;;5033418;28;20022;-84
2022/01/09 07:39:12;;;;;;;15.50;7.43;;;3.40;63.70;;;;;;5016904;28;20120;-84
2022/01/09 07:41:38;;;;;;;8.70;5.03;;;3.50;63.60;;;;;;5033242;28;20072;-84
2022/01/09 07:44:04;;;;;;;11.13;5.70;;;3.50;63.80;;;;;;5034227;28;20025;-84
2022/01/09 07:46:30;;;;;;;17.77;8.13;;;3.60;63.30;;;;;;5049742;28;20048;-84
2022/01/09 07:48:56;;;;;;;16.03;9.07;;;3.50;63.10;;;;;;5033071;28;20026;-84
2022/01/09 07:51:22;;;;;;;12.40;5.30;;;3.50;62.90;;;;;;5067682;28;20459;-84
2022/01/09 07:53:47;;;;;;;18.67;10.00;;;3.40;63.20;;;;;;5069623;28;20025;-84
2022/01/09 07:56:13;;;;;;;14.97;8.10;;;3.40;63.50;;;;;;5052999;28;20021;-84
2022/01/09 07:58:40;;;;;;;12.20;6.43;;;3.40;63.60;;;;;;5069479;28;20248;-84
2022/01/09 08:01:05;;;;;;;146.73;75.17;;;3.40;63.60;;;;;;5062859;28;20021;-84
2022/01/09 08:03:31;;;;;;;30.13;16.67;;;3.40;63.50;;;;;;5032592;28;20034;-84
2022/01/09 08:05:57;;;;;;;29.97;18.77;;;3.40;63.60;;;;;;5046434;28;20478;-84
2022/01/09 08:08:23;;;;;;;22.23;15.03;;;3.40;63.90;;;;;;5065319;28;20039;-84
2022/01/09 08:10:49;;;;;;;22.63;14.47;;;3.50;64.10;;;;;;5069252;28;20466;-84
2022/01/09 08:13:15;;;;;;;24.47;14.73;;;3.60;64.00;;;;;;5069188;28;20079;-84
2022/01/09 08:15:41;;;;;;;21.63;9.40;;;3.60;63.70;;;;;;5055406;28;20044;-84
2022/01/09 08:18:07;;;;;;;9.77;6.67;;;3.60;63.70;;;;;;5032781;28;20120;-84
2022/01/09 08:20:33;;;;;;;13.30;7.37;;;3.50;63.70;;;;;;5032296;28;20492;-84
2022/01/09 08:22:59;;;;;;;13.53;6.57;;;3.50;63.80;;;;;;5033705;28;20049;-84
2022/01/09 08:25:25;;;;;;;11.33;7.03;;;3.60;63.70;;;;;;5033366;28;20030;-84
2022/01/09 08:27:51;;;;;;;14.67;9.43;;;3.60;63.80;;;;;;5032091;28;20025;-84
2022/01/09 08:30:19;;;;;;;12.53;7.77;;;3.70;63.80;;;;;;5032091;28;20038;-84
2022/01/09 08:32:46;;;;;;;18.23;8.33;;;3.70;63.90;;;;;;5032226;28;20030;-84
2022/01/09 08:35:12;;;;;;;11.53;6.30;;;3.70;63.90;;;;;;5032308;28;20025;-84
2022/01/09 08:37:42;;;;;;;9.37;4.70;;;3.70;63.80;;;;;;5033391;28;20018;-84
2022/01/09 08:40:17;;;;;;;22.03;12.07;;;3.80;63.70;;;;;;5032756;28;20396;-84
2022/01/09 08:42:44;;;;;;;14.33;9.20;;;3.80;63.50;;;;;;5033358;28;20037;-84
2022/01/09 08:45:10;;;;;;;27.13;17.10;;;3.90;63.90;;;;;;5033367;28;20396;-84
2022/01/09 08:47:38;;;;;;;30.00;17.17;;;3.90;64.00;;;;;;5032014;28;20033;-84
2022/01/09 08:50:05;;;;;;;36.80;20.80;;;4.00;63.70;;;;;;5031775;28;20033;-84
2022/01/09 08:52:31;;;;;;;34.70;18.60;;;4.00;63.70;;;;;;5033228;28;20021;-84
2022/01/09 08:54:57;;;;;;;37.17;18.63;;;4.00;63.70;;;;;;5032200;28;20026;-84
2022/01/09 08:57:25;;;;;;;35.53;18.83;;;4.00;63.60;;;;;;5033120;28;20075;-85
2022/01/09 08:59:50;;;;;;;33.97;16.23;;;4.10;63.60;;;;;;5051784;28;20052;-84
2022/01/09 09:02:16;;;;;;;35.93;20.33;;;4.10;63.70;;;;;;5033028;28;20118;-83
2022/01/09 09:04:42;;;;;;;27.97;19.17;;;4.10;63.60;;;;;;5031546;28;20116;-84
2022/01/09 09:07:08;;;;;;;18.67;12.20;;;4.00;63.80;;;;;;5031601;28;20034;-84
2022/01/09 09:09:34;;;;;;;15.80;10.10;;;4.00;64.10;;;;;;5031616;28;20025;-84
2022/01/09 09:12:01;;;;;;;17.23;10.50;;;3.90;64.30;;;;;;5033239;28;20025;-84
2022/01/09 09:14:27;;;;;;;17.73;10.87;;;3.80;64.40;;;;;;5048213;28;20028;-85
2022/01/09 09:16:52;;;;;;;16.03;10.40;;;3.90;64.60;;;;;;5032519;28;20045;-84
2022/01/09 09:19:18;;;;;;;10.93;7.70;;;3.90;64.80;;;;;;5032397;28;20037;-84
2022/01/09 09:21:46;;;;;;;12.13;7.93;;;3.90;64.80;;;;;;5048052;28;20060;-84
2022/01/09 09:24:13;;;;;;;13.00;7.00;;;4.00;64.80;;;;;;5048021;28;20506;-84
2022/01/09 09:26:39;;;;;;;13.07;7.57;;;4.00;64.70;;;;;;5032421;28;20026;-84
2022/01/09 09:29:05;;;;;;;12.37;7.33;;;4.00;64.70;;;;;;5047592;28;20079;-84
2022/01/09 09:31:31;;;;;;;10.30;6.33;;;4.00;64.60;;;;;;5048508;28;20033;-84
2022/01/09 09:33:57;;;;;;;11.83;6.90;;;4.00;64.80;;;;;;5031147;28;20158;-84
2022/01/09 09:36:24;;;;;;;12.77;7.10;;;4.00;64.90;;;;;;5030990;28;20116;-84
2022/01/09 09:38:50;;;;;;;12.73;7.60;;;3.90;64.90;;;;;;5032514;28;20040;-84
2022/01/09 09:41:16;;;;;;;13.90;8.07;;;4.00;65.30;;;;;;5032127;28;20028;-85
2022/01/09 09:43:42;;;;;;;12.67;8.17;;;4.00;65.40;;;;;;5031059;28;20025;-84
2022/01/09 09:46:08;;;;;;;12.70;8.07;;;3.90;65.40;;;;;;5032179;28;20021;-84
2022/01/09 09:48:33;;;;;;;13.40;7.13;;;4.00;65.90;;;;;;5034080;28;20120;-84
2022/01/09 09:50:59;;;;;;;18.27;10.87;;;4.00;65.90;;;;;;5067412;28;20078;-84
2022/01/09 09:53:25;;;;;;;17.87;10.40;;;4.10;66.10;;;;;;5037470;28;20546;-84
2022/01/09 09:55:53;;;;;;;14.53;10.43;;;4.10;66.30;;;;;;5030989;28;20028;-84
2022/01/09 09:58:21;;;;;;;18.50;11.30;;;4.20;66.30;;;;;;5030794;28;20021;-84
2022/01/09 10:00:55;;;;;;;18.10;12.43;;;4.10;66.30;;;;;;5030656;28;20033;-84
2022/01/09 10:03:29;;;;;;;20.00;13.43;;;4.10;66.50;;;;;;5014766;28;20222;-84
2022/01/09 10:05:55;;;;;;;20.40;13.13;;;4.10;66.60;;;;;;5037162;28;20116;-84
2022/01/09 10:08:33;;;;;;;16.13;10.73;;;4.10;66.80;;;;;;5034257;28;20037;-84
2022/01/09 10:11:21;;;;;;;13.37;8.07;;;4.20;67.00;;;;;;5030753;28;20044;-85
2022/01/09 10:14:14;;;;;;;12.60;8.33;;;4.20;67.10;;;;;;5030363;28;20029;-84
2022/01/09 10:16:40;;;;;;;21.95;11.70;;;4.20;67.10;;;;;;5013829;28;20037;-85
2022/01/09 10:19:06;;;;;;;19.23;11.73;;;4.30;67.10;;;;;;5037145;28;20031;-85
2022/01/09 10:21:33;;;;;;;29.97;17.60;;;4.30;67.20;;;;;;5066930;28;20136;-84
2022/01/09 10:24:04;;;;;;;26.43;14.53;;;4.20;67.30;;;;;;5050414;28;20120;-84
2022/01/09 10:26:35;;;;;;;12.77;8.40;;;4.20;67.40;;;;;;5030391;28;20037;-84
2022/01/09 10:29:03;;;;;;;14.30;9.20;;;4.20;68.00;;;;;;5047164;28;20120;-84
2022/01/09 10:31:29;;;;;;;14.70;9.83;;;4.40;68.10;;;;;;5034663;28;20385;-84
2022/01/09 10:34:07;;;;;;;20.20;10.57;;;4.40;68.00;;;;;;5034597;28;20037;-84
2022/01/09 10:36:43;;;;;;;17.53;8.97;;;4.40;67.90;;;;;;5034563;28;20053;-84
2022/01/09 10:39:16;;;;;;;11.43;7.30;;;4.50;68.00;;;;;;5051387;28;20029;-85
2022/01/09 10:41:58;;;;;;;12.17;7.37;;;4.50;68.00;;;;;;5034715;28;20033;-85
2022/01/09 10:44:35;;;;;;;16.10;8.20;;;4.50;67.90;;;;;;5035948;28;20033;-85
2022/01/09 10:47:06;;;;;;;10.13;7.30;;;4.40;67.90;;;;;;5051053;28;20029;-84
2022/01/09 10:49:52;;;;;;;10.53;7.23;;;4.40;68.20;;;;;;5051054;28;20440;-84
2022/01/09 10:52:29;;;;;;;16.20;9.97;;;4.40;68.30;;;;;;5034229;28;20044;-84
2022/01/09 10:55:05;;;;;;;12.20;7.77;;;4.40;68.50;;;;;;5050561;28;20021;-84
2022/01/09 10:57:36;;;;;;;14.63;9.93;;;4.40;68.60;;;;;;5032258;28;20124;-85
2022/01/09 11:00:11;;;;;;;14.20;10.30;;;4.40;68.60;;;;;;5034617;28;20029;-84
2022/01/09 11:02:37;;;;;;;20.57;11.37;;;4.40;68.90;;;;;;5017980;28;20496;-85
2022/01/09 11:05:04;;;;;;;20.13;11.80;;;4.50;69.00;;;;;;5034278;28;20036;-84
2022/01/09 11:07:30;;;;;;;24.00;9.17;;;4.60;69.20;;;;;;5034069;28;20033;-85
2022/01/09 11:09:58;;;;;;;17.53;8.60;;;4.60;69.00;;;;;;5050855;28;20037;-85
2022/01/09 11:12:32;;;;;;;13.30;8.17;;;4.60;69.00;;;;;;5050476;28;20049;-85
2022/01/09 11:15:00;;;;;;;9.93;7.17;;;4.70;69.00;;;;;;5050282;28;20113;-85
2022/01/09 11:17:28;;;;;;;12.63;7.97;;;4.70;68.80;;;;;;5024253;28;20066;-85
2022/01/09 11:19:54;;;;;;;17.53;8.43;;;4.70;69.00;;;;;;5030676;28;20032;-85
2022/01/09 11:22:21;;;;;;;20.27;8.97;;;4.80;69.10;;;;;;5015526;28;20041;-84
2022/01/09 11:25:05;;;;;;;14.97;8.63;;;4.80;69.00;;;;;;5037495;28;20144;-85
2022/01/09 11:27:34;;;;;;;13.50;8.27;;;4.90;69.00;;;;;;5050161;28;20025;-85
2022/01/09 11:30:06;;;;;;;22.70;9.67;;;4.80;69.00;;;;;;5050150;28;20496;-85
2022/01/09 11:32:37;;;;;;;18.90;8.40;;;4.90;69.30;;;;;;5060509;28;20018;-85
2022/01/09 11:35:14;;;;;;;11.20;7.67;;;5.00;69.30;;;;;;5050109;28;20021;-85
2022/01/09 11:38:10;;;;;;;11.43;7.67;;;5.20;69.20;;;;;;5050690;28;20467;-85
2022/01/09 11:40:38;;;;;;;12.53;8.07;;;5.20;69.00;;;;;;5033540;28;20132;-85
2022/01/09 11:43:10;;;;;;;18.87;10.80;;;5.20;69.00;;;;;;5050249;28;20022;-84
2022/01/09 11:46:02;;;;;;;18.90;9.90;;;5.20;69.10;;;;;;5036908;28;20014;-85
2022/01/09 11:48:57;;;;;;;12.20;7.80;;;5.20;69.30;;;;;;5041036;28;20025;-85
2022/01/09 11:51:25;;;;;;;23.97;12.67;;;5.20;69.20;;;;;;5039232;28;20388;-84
2022/01/09 11:54:09;;;;;;;20.77;12.03;;;5.20;68.90;;;;;;5041594;28;20079;-82
2022/01/09 11:56:41;;;;;;;17.87;9.60;;;5.10;69.30;;;;;;5034480;28;20020;-84
2022/01/09 11:59:24;;;;;;;14.43;8.20;;;5.10;69.30;;;;;;5050072;28;20026;-84
2022/01/09 12:02:01;;;;;;;13.95;8.95;;;5.10;69.30;;;;;;5049965;28;20021;-84
2022/01/09 12:06:58;;;;;;;14.20;8.47;;;5.10;69.30;;;;;;5040749;28;20029;-85
2022/01/09 12:09:37;;;;;;;16.53;9.50;;;5.20;69.30;;;;;;5049167;28;20033;-84
2022/01/09 12:12:08;;;;;;;16.07;9.10;;;5.20;69.30;;;;;;5033987;28;20026;-85
2022/01/09 12:14:55;;;;;;;11.03;7.30;;;5.20;69.20;;;;;;5033074;28;20480;-85
2022/01/09 12:17:21;;;;;;;15.03;8.93;;;5.20;69.30;;;;;;5032860;28;20099;-84
2022/01/09 12:20:04;;;;;;;16.30;7.27;;;5.10;69.40;;;;;;5033188;28;20029;-85
2022/01/09 12:22:51;;;;;;;15.27;7.88;;;5.10;69.40;;;;;;5033816;28;20091;-84
2022/01/09 12:25:26;;;;;;;16.90;6.70;;;5.10;69.50;;;;;;5048670;28;20438;-85
2022/01/09 12:28:11;;;;;;;19.40;6.07;;;5.00;69.50;;;;;;5048628;28;20029;-85
2022/01/09 12:30:44;;;;;;;12.80;7.90;;;5.10;69.70;;;;;;5063362;28;20032;-85
2022/01/09 12:33:20;;;;;;;19.23;13.48;;;5.10;69.60;;;;;;5069415;28;20025;-85
2022/01/09 12:35:56;;;;;;;21.63;13.30;;;5.00;69.70;;;;;;5069387;28;20071;-85
2022/01/09 12:38:25;;;;;;;17.40;13.40;;;5.00;69.80;;;;;;5050189;28;20424;-85
2022/01/09 12:41:05;;;;;;;20.27;10.63;;;5.00;69.80;;;;;;5032544;28;20033;-85
2022/01/09 12:43:33;;;;;;;14.93;11.27;;;5.00;69.90;;;;;;5032104;28;20056;-84
2022/01/09 12:45:58;;;;;;;13.70;9.77;;;5.00;70.00;;;;;;5032391;28;20369;-85
2022/01/09 12:48:27;;;;;;;21.60;12.80;;;5.00;69.90;;;;;;5048705;28;20021;-85
2022/01/09 12:50:55;;;;;;;17.70;10.60;;;4.90;69.70;;;;;;5032168;28;20455;-85
2022/01/09 12:53:23;;;;;;;15.67;8.83;;;4.90;70.00;;;;;;5031587;28;20022;-85